sensor_id;sensor_type;location;lat;lon;timestamp;temperature;humidity
18690;DHT22;9782;52.930;15.562;2023-04-15T06:18:01;11.60;99.90
18690;DHT22;9782;52.930;15.562;2023-04-15T06:20:28;11.60;99.90
18690;DHT22;9782;52.930;15.562;2023-04-15T06:22:55;11.60;99.90
18690;DHT22;9782;52.930;15.562;2023-04-15T06:25:22;11.70;94.20
18690;DHT22;9782;52.930;15.562;2023-04-15T06:27:49;11.70;6.90
18690;DHT22;9782;52.930;15.562;2023-04-15T06:30:16;11.70;24.40
18690;DHT22;9782;52.930;15.562;2023-04-15T06:32:43;11.70;3.10
18690;DHT22;9782;52.930;15.562;2023-04-15T06:35:12;11.70;1.00
18690;DHT22;9782;52.930;15.562;2023-04-15T06:37:39;11.70;1.00
18690;DHT22;9782;52.930;15.562;2023-04-15T06:40:07;11.70;1.00
18690;DHT22;9782;52.930;15.562;2023-04-15T06:42:34;11.70;1.00
18690;DHT22;9782;52.930;15.562;2023-04-15T06:45:03;11.70;1.00
18690;DHT22;9782;52.930;15.562;2023-04-15T06:47:31;11.80;1.00
18690;DHT22;9782;52.930;15.562;2023-04-15T06:49:58;11.80;1.00
18690;DHT22;9782;52.930;15.562;2023-04-15T06:52:26;11.80;1.00
18690;DHT22;9782;52.930;15.562;2023-04-15T06:54:53;11.90;1.00
18690;DHT22;9782;52.930;15.562;2023-04-15T06:57:20;11.90;1.00
18690;DHT22;9782;52.930;15.562;2023-04-15T06:59:47;11.90;1.00
18690;DHT22;9782;52.930;15.562;2023-04-15T07:02:14;11.90;1.00
18690;DHT22;9782;52.930;15.562;2023-04-15T07:04:41;11.90;1.00
18690;DHT22;9782;52.930;15.562;2023-04-15T07:07:08;12.00;1.00
18690;DHT22;9782;52.930;15.562;2023-04-15T07:09:37;11.90;1.00
18690;DHT22;9782;52.930;15.562;2023-04-15T07:12:04;11.90;1.00
18690;DHT22;9782;52.930;15.562;2023-04-15T07:14:31;11.90;1.00
18690;DHT22;9782;52.930;15.562;2023-04-15T07:16:58;11.90;80.10
18690;DHT22;9782;52.930;15.562;2023-04-15T07:19:25;11.80;99.90
18690;DHT22;9782;52.930;15.562;2023-04-15T07:21:52;11.80;99.90
18690;DHT22;9782;52.930;15.562;2023-04-15T07:24:19;11.80;99.90
18690;DHT22;9782;52.930;15.562;2023-04-15T07:26:49;11.90;1.00
18690;DHT22;9782;52.930;15.562;2023-04-15T07:29:16;11.90;1.00
18690;DHT22;9782;52.930;15.562;2023-04-15T07:31:43;11.90;1.00
18690;DHT22;9782;52.930;15.562;2023-04-15T07:34:10;11.90;1.00
18690;DHT22;9782;52.930;15.562;2023-04-15T07:36:37;12.00;1.00
18690;DHT22;9782;52.930;15.562;2023-04-15T07:39:05;12.00;1.00
18690;DHT22;9782;52.930;15.562;2023-04-15T07:41:32;12.00;1.00
18690;DHT22;9782;52.930;15.562;2023-04-15T07:44:00;12.00;1.00
18690;DHT22;9782;52.930;15.562;2023-04-15T07:46:27;12.00;1.00
18690;DHT22;9782;52.930;15.562;2023-04-15T07:48:54;12.00;1.00
18690;DHT22;9782;52.930;15.562;2023-04-15T07:51:22;12.10;1.00
18690;DHT22;9782;52.930;15.562;2023-04-15T07:53:49;12.10;1.00
18690;DHT22;9782;52.930;15.562;2023-04-15T07:56:16;12.10;1.00
18690;DHT22;9782;52.930;15.562;2023-04-15T07:58:43;12.20;1.00
18690;DHT22;9782;52.930;15.562;2023-04-15T08:01:11;12.20;1.00
18690;DHT22;9782;52.930;15.562;2023-04-15T08:03:38;12.20;1.00
18690;DHT22;9782;52.930;15.562;2023-04-15T08:06:06;12.30;1.00
18690;DHT22;9782;52.930;15.562;2023-04-15T08:08:33;12.30;1.00
18690;DHT22;9782;52.930;15.562;2023-04-15T08:11:00;12.20;1.00
18690;DHT22;9782;52.930;15.562;2023-04-15T08:13:27;12.20;1.00
18690;DHT22;9782;52.930;15.562;2023-04-15T08:16:19;12.20;1.00
18690;DHT22;9782;52.930;15.562;2023-04-15T08:18:47;12.10;1.00
18690;DHT22;9782;52.930;15.562;2023-04-15T08:21:15;12.10;30.20
18690;DHT22;9782;52.930;15.562;2023-04-15T08:23:42;12.10;49.60
18690;DHT22;9782;52.930;15.562;2023-04-15T08:26:09;12.10;68.30
18690;DHT22;9782;52.930;15.562;2023-04-15T08:28:38;12.00;82.50
18690;DHT22;9782;52.930;15.562;2023-04-15T08:31:05;12.00;99.90
18690;DHT22;9782;52.930;15.562;2023-04-15T08:33:33;12.00;99.90
18690;DHT22;9782;52.930;15.562;2023-04-15T08:36:00;12.00;99.90
18690;DHT22;9782;52.930;15.562;2023-04-15T08:38:27;12.00;99.90
18690;DHT22;9782;52.930;15.562;2023-04-15T08:40:55;11.90;99.90
18690;DHT22;9782;52.930;15.562;2023-04-15T08:43:26;11.90;99.90
18690;DHT22;9782;52.930;15.562;2023-04-15T08:45:55;11.80;1.00
18690;DHT22;9782;52.930;15.562;2023-04-15T08:48:26;11.80;1.00
18690;DHT22;9782;52.930;15.562;2023-04-15T08:50:55;11.70;1.00
18690;DHT22;9782;52.930;15.562;2023-04-15T08:53:23;11.70;1.00
18690;DHT22;9782;52.930;15.562;2023-04-15T08:55:52;11.70;99.90
18690;DHT22;9782;52.930;15.562;2023-04-15T08:58:21;11.70;99.90
18690;DHT22;9782;52.930;15.562;2023-04-15T09:00:49;11.70;99.90
18690;DHT22;9782;52.930;15.562;2023-04-15T09:03:16;11.70;99.90
18690;DHT22;9782;52.930;15.562;2023-04-15T09:05:44;11.70;99.90
18690;DHT22;9782;52.930;15.562;2023-04-15T09:08:13;11.70;1.00
18690;DHT22;9782;52.930;15.562;2023-04-15T09:10:40;11.70;1.00
18690;DHT22;9782;52.930;15.562;2023-04-15T09:13:08;11.70;1.00
18690;DHT22;9782;52.930;15.562;2023-04-15T09:15:37;11.70;1.00
18690;DHT22;9782;52.930;15.562;2023-04-15T09:18:04;11.70;1.00
18690;DHT22;9782;52.930;15.562;2023-04-15T09:20:38;11.70;1.00
18690;DHT22;9782;52.930;15.562;2023-04-15T09:23:12;11.70;1.00
18690;DHT22;9782;52.930;15.562;2023-04-15T09:25:40;11.60;1.00
18690;DHT22;9782;52.930;15.562;2023-04-15T09:28:08;11.60;1.00
18690;DHT22;9782;52.930;15.562;2023-04-15T09:30:35;11.60;96.90
18690;DHT22;9782;52.930;15.562;2023-04-15T09:33:03;11.60;99.90
18690;DHT22;9782;52.930;15.562;2023-04-15T09:35:33;11.70;99.90
18690;DHT22;9782;52.930;15.562;2023-04-15T09:38:03;11.70;99.90
18690;DHT22;9782;52.930;15.562;2023-04-15T09:40:33;11.70;99.90
18690;DHT22;9782;52.930;15.562;2023-04-15T09:43:00;11.70;99.90
18690;DHT22;9782;52.930;15.562;2023-04-15T09:45:28;11.70;99.90
18690;DHT22;9782;52.930;15.562;2023-04-15T09:47:56;11.70;99.90
18690;DHT22;9782;52.930;15.562;2023-04-15T09:50:26;11.60;99.90
18690;DHT22;9782;52.930;15.562;2023-04-15T09:52:54;11.60;1.00
18690;DHT22;9782;52.930;15.562;2023-04-15T09:55:22;11.60;1.00
18690;DHT22;9782;52.930;15.562;2023-04-15T09:57:50;11.60;1.00
18690;DHT22;9782;52.930;15.562;2023-04-15T10:00:18;11.50;1.00
18690;DHT22;9782;52.930;15.562;2023-04-15T10:02:46;11.50;1.00
18690;DHT22;9782;52.930;15.562;2023-04-15T10:05:15;11.50;1.00
18690;DHT22;9782;52.930;15.562;2023-04-15T10:07:43;11.60;1.00
18690;DHT22;9782;52.930;15.562;2023-04-15T10:10:11;11.70;1.00
18690;DHT22;9782;52.930;15.562;2023-04-15T10:12:40;11.70;1.00
18690;DHT22;9782;52.930;15.562;2023-04-15T10:15:14;11.80;1.00
18690;DHT22;9782;52.930;15.562;2023-04-15T10:17:43;11.90;1.00
18690;DHT22;9782;52.930;15.562;2023-04-15T10:20:11;11.90;1.00
18690;DHT22;9782;52.930;15.562;2023-04-15T10:22:40;11.80;1.00
18690;DHT22;9782;52.930;15.562;2023-04-15T10:25:09;11.80;1.00
18690;DHT22;9782;52.930;15.562;2023-04-15T10:27:39;11.80;1.00
18690;DHT22;9782;52.930;15.562;2023-04-15T10:30:09;11.80;1.00
18690;DHT22;9782;52.930;15.562;2023-04-15T10:32:37;11.70;1.00
18690;DHT22;9782;52.930;15.562;2023-04-15T10:35:05;11.70;1.00
18690;DHT22;9782;52.930;15.562;2023-04-15T10:37:34;11.70;1.00
18690;DHT22;9782;52.930;15.562;2023-04-15T10:40:23;11.70;1.00
18690;DHT22;9782;52.930;15.562;2023-04-15T10:42:50;11.80;99.90
18690;DHT22;9782;52.930;15.562;2023-04-15T10:45:19;11.80;3.30
18690;DHT22;9782;52.930;15.562;2023-04-15T10:47:51;11.80;20.50
18690;DHT22;9782;52.930;15.562;2023-04-15T10:50:19;11.80;39.70
18690;DHT22;9782;52.930;15.562;2023-04-15T10:52:49;11.90;1.00
18690;DHT22;9782;52.930;15.562;2023-04-15T10:55:19;11.90;4.70
18690;DHT22;9782;52.930;15.562;2023-04-15T10:57:51;11.90;99.90
18690;DHT22;9782;52.930;15.562;2023-04-15T11:00:23;12.10;25.30
18690;DHT22;9782;52.930;15.562;2023-04-15T11:02:53;12.10;1.00
18690;DHT22;9782;52.930;15.562;2023-04-15T11:05:47;12.10;1.00
18690;DHT22;9782;52.930;15.562;2023-04-15T11:08:11;12.20;1.00
18690;DHT22;9782;52.930;15.562;2023-04-15T11:10:54;12.20;1.00
18690;DHT22;9782;52.930;15.562;2023-04-15T11:13:23;12.20;1.00
18690;DHT22;9782;52.930;15.562;2023-04-15T11:15:55;12.20;1.00
18690;DHT22;9782;52.930;15.562;2023-04-15T11:18:25;12.30;1.00
18690;DHT22;9782;52.930;15.562;2023-04-15T11:20:53;12.30;1.00
18690;DHT22;9782;52.930;15.562;2023-04-15T11:23:36;12.30;1.00
18690;DHT22;9782;52.930;15.562;2023-04-15T11:26:06;12.30;1.00
18690;DHT22;9782;52.930;15.562;2023-04-15T11:28:37;12.20;1.00
18690;DHT22;9782;52.930;15.562;2023-04-15T11:31:09;12.30;1.00
18690;DHT22;9782;52.930;15.562;2023-04-15T11:33:37;12.20;1.00
18690;DHT22;9782;52.930;15.562;2023-04-15T11:36:05;12.20;1.00
18690;DHT22;9782;52.930;15.562;2023-04-15T11:38:34;12.20;1.00
18690;DHT22;9782;52.930;15.562;2023-04-15T11:41:02;12.10;1.00
18690;DHT22;9782;52.930;15.562;2023-04-15T11:43:31;12.10;1.00
18690;DHT22;9782;52.930;15.562;2023-04-15T11:46:01;12.10;1.00
18690;DHT22;9782;52.930;15.562;2023-04-15T11:48:30;12.10;1.00
18690;DHT22;9782;52.930;15.562;2023-04-15T11:50:59;12.10;59.00
18690;DHT22;9782;52.930;15.562;2023-04-15T11:53:37;12.10;99.90
18690;DHT22;9782;52.930;15.562;2023-04-15T11:56:07;12.10;99.90
18690;DHT22;9782;52.930;15.562;2023-04-15T11:58:35;12.20;99.90
18690;DHT22;9782;52.930;15.562;2023-04-15T12:01:04;12.20;99.90
18690;DHT22;9782;52.930;15.562;2023-04-15T12:03:36;12.30;17.00
18690;DHT22;9782;52.930;15.562;2023-04-15T12:06:14;12.20;1.00
18690;DHT22;9782;52.930;15.562;2023-04-15T12:08:57;12.10;74.10
18690;DHT22;9782;52.930;15.562;2023-04-15T12:11:36;12.10;99.90
18690;DHT22;9782;52.930;15.562;2023-04-15T12:14:05;12.10;99.90
18690;DHT22;9782;52.930;15.562;2023-04-15T12:16:34;12.10;99.90
18690;DHT22;9782;52.930;15.562;2023-04-15T12:19:09;12.10;99.90
18690;DHT22;9782;52.930;15.562;2023-04-15T12:21:37;12.10;99.90
18690;DHT22;9782;52.930;15.562;2023-04-15T12:24:08;12.20;1.00
18690;DHT22;9782;52.930;15.562;2023-04-15T12:26:37;12.40;1.00
18690;DHT22;9782;52.930;15.562;2023-04-15T12:29:10;12.50;99.90
18690;DHT22;9782;52.930;15.562;2023-04-15T12:31:46;12.50;82.50
18690;DHT22;9782;52.930;15.562;2023-04-15T12:34:14;12.50;1.00
18690;DHT22;9782;52.930;15.562;2023-04-15T12:36:41;12.40;1.00
18690;DHT22;9782;52.930;15.562;2023-04-15T12:39:10;12.40;35.30
18690;DHT22;9782;52.930;15.562;2023-04-15T12:41:37;12.30;47.30
18690;DHT22;9782;52.930;15.562;2023-04-15T12:44:04;12.20;10.60
18690;DHT22;9782;52.930;15.562;2023-04-15T12:46:31;12.20;99.90
18690;DHT22;9782;52.930;15.562;2023-04-15T12:48:58;12.20;99.90
18690;DHT22;9782;52.930;15.562;2023-04-15T12:51:25;12.10;99.90
18690;DHT22;9782;52.930;15.562;2023-04-15T12:53:53;12.10;99.90
18690;DHT22;9782;52.930;15.562;2023-04-15T12:56:21;12.10;99.90
18690;DHT22;9782;52.930;15.562;2023-04-15T12:58:48;12.10;1.00
18690;DHT22;9782;52.930;15.562;2023-04-15T13:01:16;12.10;1.00
18690;DHT22;9782;52.930;15.562;2023-04-15T13:03:43;12.20;1.00
18690;DHT22;9782;52.930;15.562;2023-04-15T13:06:10;12.20;1.00
18690;DHT22;9782;52.930;15.562;2023-04-15T13:08:37;12.30;1.00
18690;DHT22;9782;52.930;15.562;2023-04-15T13:11:04;12.30;1.00
18690;DHT22;9782;52.930;15.562;2023-04-15T13:13:33;12.30;1.00
18690;DHT22;9782;52.930;15.562;2023-04-15T13:16:00;12.30;99.90
18690;DHT22;9782;52.930;15.562;2023-04-15T13:18:27;12.30;99.90
18690;DHT22;9782;52.930;15.562;2023-04-15T13:20:55;12.30;99.90
18690;DHT22;9782;52.930;15.562;2023-04-15T13:23:22;12.20;99.90
18690;DHT22;9782;52.930;15.562;2023-04-15T13:25:49;12.20;1.00
18690;DHT22;9782;52.930;15.562;2023-04-15T13:28:16;12.30;1.00
18690;DHT22;9782;52.930;15.562;2023-04-15T13:30:45;12.20;99.90
18690;DHT22;9782;52.930;15.562;2023-04-15T13:33:13;12.30;1.00
18690;DHT22;9782;52.930;15.562;2023-04-15T13:35:40;12.20;1.00
18690;DHT22;9782;52.930;15.562;2023-04-15T13:38:07;12.20;1.00
18690;DHT22;9782;52.930;15.562;2023-04-15T13:40:34;12.20;1.00
18690;DHT22;9782;52.930;15.562;2023-04-15T13:43:01;12.20;1.00
18690;DHT22;9782;52.930;15.562;2023-04-15T13:45:29;12.20;1.00
18690;DHT22;9782;52.930;15.562;2023-04-15T13:47:57;12.40;1.00
18690;DHT22;9782;52.930;15.562;2023-04-15T13:50:26;12.50;1.00
18690;DHT22;9782;52.930;15.562;2023-04-15T13:52:53;12.50;1.00
18690;DHT22;9782;52.930;15.562;2023-04-15T13:55:20;12.50;1.00
18690;DHT22;9782;52.930;15.562;2023-04-15T13:57:47;12.50;1.00
18690;DHT22;9782;52.930;15.562;2023-04-15T14:00:15;12.50;1.00
18690;DHT22;9782;52.930;15.562;2023-04-15T14:02:42;12.40;99.90
18690;DHT22;9782;52.930;15.562;2023-04-15T14:05:11;12.40;1.00
18690;DHT22;9782;52.930;15.562;2023-04-15T14:07:38;12.30;99.90
18690;DHT22;9782;52.930;15.562;2023-04-15T14:10:06;12.20;1.00
18690;DHT22;9782;52.930;15.562;2023-04-15T14:12:33;12.10;1.00
18690;DHT22;9782;52.930;15.562;2023-04-15T14:15:00;12.00;1.00
18690;DHT22;9782;52.930;15.562;2023-04-15T14:17:27;12.00;1.00
18690;DHT22;9782;52.930;15.562;2023-04-15T14:19:54;12.00;68.20
18690;DHT22;9782;52.930;15.562;2023-04-15T14:22:23;12.10;99.90
18690;DHT22;9782;52.930;15.562;2023-04-15T14:24:50;12.20;21.70
18690;DHT22;9782;52.930;15.562;2023-04-15T14:27:18;12.30;1.00
18690;DHT22;9782;52.930;15.562;2023-04-15T14:29:45;12.30;1.00
18690;DHT22;9782;52.930;15.562;2023-04-15T14:32:12;12.30;1.00
18690;DHT22;9782;52.930;15.562;2023-04-15T14:34:39;12.30;1.00
18690;DHT22;9782;52.930;15.562;2023-04-15T14:37:06;12.30;1.00
18690;DHT22;9782;52.930;15.562;2023-04-15T14:39:34;12.30;1.00
18690;DHT22;9782;52.930;15.562;2023-04-15T14:42:01;12.30;1.00
18690;DHT22;9782;52.930;15.562;2023-04-15T14:44:28;12.20;1.00
18690;DHT22;9782;52.930;15.562;2023-04-15T14:46:55;12.20;1.00
18690;DHT22;9782;52.930;15.562;2023-04-15T14:49:22;12.20;1.00
18690;DHT22;9782;52.930;15.562;2023-04-15T14:51:49;12.30;1.00
18690;DHT22;9782;52.930;15.562;2023-04-15T14:54:16;12.30;1.00
18690;DHT22;9782;52.930;15.562;2023-04-15T14:56:45;12.30;1.00
18690;DHT22;9782;52.930;15.562;2023-04-15T14:59:12;12.30;1.00
18690;DHT22;9782;52.930;15.562;2023-04-15T15:01:39;12.30;1.00
18690;DHT22;9782;52.930;15.562;2023-04-15T15:04:05;12.20;1.00
18690;DHT22;9782;52.930;15.562;2023-04-15T15:06:33;12.20;1.00
18690;DHT22;9782;52.930;15.562;2023-04-15T15:09:00;12.20;1.00
18690;DHT22;9782;52.930;15.562;2023-04-15T15:11:27;12.20;1.00
18690;DHT22;9782;52.930;15.562;2023-04-15T15:13:56;12.20;1.00
18690;DHT22;9782;52.930;15.562;2023-04-15T15:16:24;12.20;1.00
18690;DHT22;9782;52.930;15.562;2023-04-15T15:18:51;12.10;1.00
18690;DHT22;9782;52.930;15.562;2023-04-15T15:21:18;12.10;1.00
18690;DHT22;9782;52.930;15.562;2023-04-15T15:23:45;12.20;1.00
18690;DHT22;9782;52.930;15.562;2023-04-15T15:26:13;12.20;1.00
18690;DHT22;9782;52.930;15.562;2023-04-15T15:28:40;12.20;1.00
18690;DHT22;9782;52.930;15.562;2023-04-15T15:31:09;12.20;1.00
18690;DHT22;9782;52.930;15.562;2023-04-15T15:33:36;12.30;1.00
18690;DHT22;9782;52.930;15.562;2023-04-15T15:36:03;12.30;1.00
18690;DHT22;9782;52.930;15.562;2023-04-15T15:38:30;12.40;1.00
18690;DHT22;9782;52.930;15.562;2023-04-15T15:40:57;12.40;1.00
18690;DHT22;9782;52.930;15.562;2023-04-15T15:43:24;12.40;1.00
18690;DHT22;9782;52.930;15.562;2023-04-15T15:45:51;12.40;1.00
18690;DHT22;9782;52.930;15.562;2023-04-15T15:48:21;12.30;1.00
18690;DHT22;9782;52.930;15.562;2023-04-15T15:50:49;12.30;1.00
18690;DHT22;9782;52.930;15.562;2023-04-15T15:53:16;12.30;1.00
18690;DHT22;9782;52.930;15.562;2023-04-15T15:55:45;12.30;1.00
18690;DHT22;9782;52.930;15.562;2023-04-15T15:58:13;12.20;1.00
18690;DHT22;9782;52.930;15.562;2023-04-15T16:00:41;12.10;1.00
18690;DHT22;9782;52.930;15.562;2023-04-15T16:03:08;12.10;1.00
18690;DHT22;9782;52.930;15.562;2023-04-15T16:05:37;12.10;1.00
18690;DHT22;9782;52.930;15.562;2023-04-15T16:08:05;12.10;1.00
18690;DHT22;9782;52.930;15.562;2023-04-15T16:10:32;12.10;1.00
18690;DHT22;9782;52.930;15.562;2023-04-15T16:12:59;12.10;1.00
18690;DHT22;9782;52.930;15.562;2023-04-15T16:15:26;12.10;1.00
18690;DHT22;9782;52.930;15.562;2023-04-15T16:17:53;12.10;1.00
18690;DHT22;9782;52.930;15.562;2023-04-15T16:20:20;12.10;1.00
18690;DHT22;9782;52.930;15.562;2023-04-15T16:22:49;12.10;1.00
18690;DHT22;9782;52.930;15.562;2023-04-15T16:25:17;12.10;1.00
18690;DHT22;9782;52.930;15.562;2023-04-15T16:27:44;12.10;1.00
18690;DHT22;9782;52.930;15.562;2023-04-15T16:30:12;12.10;1.00
18690;DHT22;9782;52.930;15.562;2023-04-15T16:32:39;12.10;1.00
18690;DHT22;9782;52.930;15.562;2023-04-15T16:35:07;12.10;1.00
18690;DHT22;9782;52.930;15.562;2023-04-15T16:37:34;12.10;1.00
18690;DHT22;9782;52.930;15.562;2023-04-15T16:40:02;12.00;1.00
18690;DHT22;9782;52.930;15.562;2023-04-15T16:42:30;11.80;1.00
18690;DHT22;9782;52.930;15.562;2023-04-15T16:44:57;11.80;1.00
18690;DHT22;9782;52.930;15.562;2023-04-15T16:47:24;11.60;1.00
18690;DHT22;9782;52.930;15.562;2023-04-15T16:49:51;11.60;1.00
18690;DHT22;9782;52.930;15.562;2023-04-15T16:52:18;11.50;4.80
18690;DHT22;9782;52.930;15.562;2023-04-15T16:54:45;11.50;99.90
18690;DHT22;9782;52.930;15.562;2023-04-15T16:57:13;11.40;99.90
18690;DHT22;9782;52.930;15.562;2023-04-15T16:59:40;11.30;99.90
18690;DHT22;9782;52.930;15.562;2023-04-15T17:02:09;11.30;99.90
18690;DHT22;9782;52.930;15.562;2023-04-15T17:04:36;11.30;1.00
18690;DHT22;9782;52.930;15.562;2023-04-15T17:07:04;11.40;1.00
18690;DHT22;9782;52.930;15.562;2023-04-15T17:09:31;11.40;1.00
18690;DHT22;9782;52.930;15.562;2023-04-15T17:11:58;11.40;1.00
18690;DHT22;9782;52.930;15.562;2023-04-15T17:14:27;11.40;1.00
18690;DHT22;9782;52.930;15.562;2023-04-15T17:16:55;11.30;1.00
18690;DHT22;9782;52.930;15.562;2023-04-15T17:19:22;11.30;1.00
18690;DHT22;9782;52.930;15.562;2023-04-15T17:21:50;11.30;1.00
18690;DHT22;9782;52.930;15.562;2023-04-15T17:24:17;11.20;1.00
18690;DHT22;9782;52.930;15.562;2023-04-15T17:26:44;11.20;1.00
18690;DHT22;9782;52.930;15.562;2023-04-15T17:29:11;11.20;1.00
18690;DHT22;9782;52.930;15.562;2023-04-15T17:31:40;11.20;1.00
18690;DHT22;9782;52.930;15.562;2023-04-15T17:34:07;11.20;1.00
18690;DHT22;9782;52.930;15.562;2023-04-15T17:36:34;11.20;25.80
18690;DHT22;9782;52.930;15.562;2023-04-15T17:39:01;11.20;1.00
18690;DHT22;9782;52.930;15.562;2023-04-15T17:41:28;11.20;4.00
18690;DHT22;9782;52.930;15.562;2023-04-15T17:43:55;11.30;1.00
18690;DHT22;9782;52.930;15.562;2023-04-15T17:46:22;11.30;1.00
18690;DHT22;9782;52.930;15.562;2023-04-15T17:48:50;11.20;1.00
18690;DHT22;9782;52.930;15.562;2023-04-15T17:51:17;11.20;1.00
18690;DHT22;9782;52.930;15.562;2023-04-15T17:53:44;11.20;1.00
18690;DHT22;9782;52.930;15.562;2023-04-15T17:56:11;11.20;29.70
18690;DHT22;9782;52.930;15.562;2023-04-15T17:58:38;11.20;86.00
18690;DHT22;9782;52.930;15.562;2023-04-15T18:01:05;11.10;99.90
18690;DHT22;9782;52.930;15.562;2023-04-15T18:03:32;11.10;99.90
18690;DHT22;9782;52.930;15.562;2023-04-15T18:06:00;11.10;99.90
18690;DHT22;9782;52.930;15.562;2023-04-15T18:08:27;11.10;99.90
18690;DHT22;9782;52.930;15.562;2023-04-15T18:10:54;11.00;99.90
18690;DHT22;9782;52.930;15.562;2023-04-15T18:13:22;11.00;99.90
18690;DHT22;9782;52.930;15.562;2023-04-15T18:15:49;11.00;99.90
18690;DHT22;9782;52.930;15.562;2023-04-15T18:18:16;11.00;1.00
18690;DHT22;9782;52.930;15.562;2023-04-15T18:20:43;11.00;1.00
18690;DHT22;9782;52.930;15.562;2023-04-15T18:23:11;11.00;1.00
18690;DHT22;9782;52.930;15.562;2023-04-15T18:25:39;11.00;1.00
18690;DHT22;9782;52.930;15.562;2023-04-15T18:28:08;11.00;1.00
18690;DHT22;9782;52.930;15.562;2023-04-15T18:30:35;10.90;1.00
18690;DHT22;9782;52.930;15.562;2023-04-15T18:33:02;10.90;1.00
18690;DHT22;9782;52.930;15.562;2023-04-15T18:35:29;10.90;1.00
18690;DHT22;9782;52.930;15.562;2023-04-15T18:37:56;10.90;1.00
18690;DHT22;9782;52.930;15.562;2023-04-15T18:40:25;10.90;1.00
18690;DHT22;9782;52.930;15.562;2023-04-15T18:42:52;10.90;1.00
18690;DHT22;9782;52.930;15.562;2023-04-15T18:45:19;10.90;1.00
18690;DHT22;9782;52.930;15.562;2023-04-15T18:47:46;10.90;1.00
18690;DHT22;9782;52.930;15.562;2023-04-15T18:50:15;10.80;51.70
18690;DHT22;9782;52.930;15.562;2023-04-15T18:52:42;10.80;99.90
18690;DHT22;9782;52.930;15.562;2023-04-15T18:55:09;10.80;99.90
18690;DHT22;9782;52.930;15.562;2023-04-15T18:57:37;10.80;99.90
18690;DHT22;9782;52.930;15.562;2023-04-15T19:00:08;10.80;99.90
18690;DHT22;9782;52.930;15.562;2023-04-15T19:02:35;10.80;99.90
18690;DHT22;9782;52.930;15.562;2023-04-15T19:05:03;10.80;99.90
18690;DHT22;9782;52.930;15.562;2023-04-15T19:07:30;10.80;99.90
18690;DHT22;9782;52.930;15.562;2023-04-15T19:09:57;10.80;99.90
18690;DHT22;9782;52.930;15.562;2023-04-15T19:12:24;10.80;99.90
18690;DHT22;9782;52.930;15.562;2023-04-15T19:14:53;10.80;99.90
18690;DHT22;9782;52.930;15.562;2023-04-15T19:17:20;10.80;99.90
18690;DHT22;9782;52.930;15.562;2023-04-15T19:19:47;10.80;1.00
18690;DHT22;9782;52.930;15.562;2023-04-15T19:22:14;10.80;1.00
18690;DHT22;9782;52.930;15.562;2023-04-15T19:24:42;10.80;1.00
18690;DHT22;9782;52.930;15.562;2023-04-15T19:27:09;10.80;1.00
18690;DHT22;9782;52.930;15.562;2023-04-15T19:29:36;10.80;1.00
18690;DHT22;9782;52.930;15.562;2023-04-15T19:32:04;10.80;1.00
18690;DHT22;9782;52.930;15.562;2023-04-15T19:36:58;10.80;1.00
18690;DHT22;9782;52.930;15.562;2023-04-15T19:39:25;10.80;1.00
18690;DHT22;9782;52.930;15.562;2023-04-15T19:41:52;10.80;1.00
18690;DHT22;9782;52.930;15.562;2023-04-15T19:44:19;10.80;1.00
18690;DHT22;9782;52.930;15.562;2023-04-15T19:46:46;10.80;1.00
18690;DHT22;9782;52.930;15.562;2023-04-15T19:49:17;10.80;1.00
18690;DHT22;9782;52.930;15.562;2023-04-15T19:51:45;10.80;1.00
18690;DHT22;9782;52.930;15.562;2023-04-15T19:54:13;10.80;1.00
18690;DHT22;9782;52.930;15.562;2023-04-15T19:56:40;10.80;1.00
18690;DHT22;9782;52.930;15.562;2023-04-15T19:59:07;10.80;1.00
18690;DHT22;9782;52.930;15.562;2023-04-15T20:01:34;10.80;1.00
18690;DHT22;9782;52.930;15.562;2023-04-15T20:04:01;10.80;1.00
18690;DHT22;9782;52.930;15.562;2023-04-15T20:06:30;10.80;1.00
18690;DHT22;9782;52.930;15.562;2023-04-15T20:08:57;10.80;1.00
18690;DHT22;9782;52.930;15.562;2023-04-15T20:11:24;10.80;1.00
18690;DHT22;9782;52.930;15.562;2023-04-15T20:13:53;10.80;1.00
18690;DHT22;9782;52.930;15.562;2023-04-15T20:16:20;10.80;1.00
18690;DHT22;9782;52.930;15.562;2023-04-15T20:18:47;10.80;1.00
18690;DHT22;9782;52.930;15.562;2023-04-15T20:21:14;10.80;1.00
18690;DHT22;9782;52.930;15.562;2023-04-15T20:23:43;10.70;1.00
18690;DHT22;9782;52.930;15.562;2023-04-15T20:26:10;10.70;1.00
18690;DHT22;9782;52.930;15.562;2023-04-15T20:28:37;10.70;1.00
18690;DHT22;9782;52.930;15.562;2023-04-15T20:31:04;10.70;1.00
18690;DHT22;9782;52.930;15.562;2023-04-15T20:33:31;10.70;18.60
18690;DHT22;9782;52.930;15.562;2023-04-15T20:35:58;10.70;63.20
18690;DHT22;9782;52.930;15.562;2023-04-15T20:38:25;10.70;81.50
18690;DHT22;9782;52.930;15.562;2023-04-15T20:40:53;10.70;99.90
18690;DHT22;9782;52.930;15.562;2023-04-15T20:43:20;10.70;99.90
18690;DHT22;9782;52.930;15.562;2023-04-15T20:45:48;10.70;99.90
18690;DHT22;9782;52.930;15.562;2023-04-15T20:48:16;10.70;63.80
18690;DHT22;9782;52.930;15.562;2023-04-15T20:50:44;10.70;43.90
18690;DHT22;9782;52.930;15.562;2023-04-15T20:53:11;10.70;63.30
18690;DHT22;9782;52.930;15.562;2023-04-15T20:55:38;10.70;81.80
18690;DHT22;9782;52.930;15.562;2023-04-15T20:58:06;10.70;45.70
18690;DHT22;9782;52.930;15.562;2023-04-15T21:00:33;10.70;51.30
18690;DHT22;9782;52.930;15.562;2023-04-15T21:03:00;10.70;55.50
18690;DHT22;9782;52.930;15.562;2023-04-15T21:05:27;10.70;32.00
18690;DHT22;9782;52.930;15.562;2023-04-15T21:07:55;10.70;42.40
18690;DHT22;9782;52.930;15.562;2023-04-15T21:10:21;10.70;44.50
18690;DHT22;9782;52.930;15.562;2023-04-15T21:12:49;10.70;18.90
18690;DHT22;9782;52.930;15.562;2023-04-15T21:15:18;10.70;6.80
18690;DHT22;9782;52.930;15.562;2023-04-15T21:17:45;10.70;29.30
18690;DHT22;9782;52.930;15.562;2023-04-15T21:20:12;10.70;27.00
18690;DHT22;9782;52.930;15.562;2023-04-15T21:22:39;10.70;26.60
18690;DHT22;9782;52.930;15.562;2023-04-15T21:25:07;10.70;2.90
18690;DHT22;9782;52.930;15.562;2023-04-15T21:27:34;10.70;7.10
18690;DHT22;9782;52.930;15.562;2023-04-15T21:30:01;10.70;17.80
18690;DHT22;9782;52.930;15.562;2023-04-15T21:32:30;10.70;20.40
18690;DHT22;9782;52.930;15.562;2023-04-15T21:34:57;10.70;17.20
18690;DHT22;9782;52.930;15.562;2023-04-15T21:37:24;10.70;42.00
18690;DHT22;9782;52.930;15.562;2023-04-15T21:39:51;10.70;99.90
18690;DHT22;9782;52.930;15.562;2023-04-15T21:42:18;10.70;1.00
18690;DHT22;9782;52.930;15.562;2023-04-15T21:44:45;10.70;1.00
18690;DHT22;9782;52.930;15.562;2023-04-15T21:47:11;10.70;1.00
18690;DHT22;9782;52.930;15.562;2023-04-15T21:49:40;10.70;1.00
18690;DHT22;9782;52.930;15.562;2023-04-15T21:52:07;10.70;1.00
18690;DHT22;9782;52.930;15.562;2023-04-15T21:54:34;10.70;1.00
18690;DHT22;9782;52.930;15.562;2023-04-15T21:57:02;10.80;1.00
18690;DHT22;9782;52.930;15.562;2023-04-15T21:59:29;10.80;1.00
18690;DHT22;9782;52.930;15.562;2023-04-15T22:01:56;10.80;99.90
18690;DHT22;9782;52.930;15.562;2023-04-15T22:04:23;10.80;99.90